x

Shumagin Islands - 85nm South Of Sand Point, Ak (46075) Wave Buoy

1:50pm - Fri 24th Oct 2014 All times are UTC.

  • Sig Wave height 5.2ft
  • Peak Period 6s
  • Average Period 5s
  • Wind
    18mph, 20mph gusts
  • Sea Temp 48°f
  • Air Temp 47°f
  • Sea Pressure 1017mb

More Historic Weather Station data

Upgrade to MSW Pro to gain access to the past 30 days of data for over 8000 Wavebouys and Weather Stations around the globe.

Join Pro

Comparision Forecast

View Surf forecast
   
Fri 10/24 1:50pm 5ft 6s 5s 18 20 mph 1017mb 48f 47f
12:50pm 4.5ft 6s 5s 20 22 mph 1017.5mb 47f 47f
11:50am 5ft 7s 5s 18 22 mph 1017.6mb 48f 47f
10:50am 4.5ft 6s 5s 18 22 mph 1017.7mb 47f 47f
9:50am 5ft 6s 5s 18 22 mph 1017.7mb 47f 47f
8:50am 5ft 7s 6s 18 20 mph 1017.9mb 48f 47f
7:50am 4.5ft 8s 5s 18 20 mph 1018.2mb 48f 47f
6:50am 5ft 7s 5s 18 20 mph 1018.3mb 47f 47f
5:50am 5ft 8s 5s 18 22 mph 1018.4mb 47f 47f
4:50am 5.5ft 8s 6s 16 20 mph 1018.6mb 47f 47f
3:50am 5.5ft 7s 5s 16 20 mph 1018.9mb 47f 47f
2:50am 6ft 8s 6s 18 20 mph 1018.6mb 47f 47f
1:50am 6ft 8s 6s 18 22 mph 1018.8mb 47f 47f
12:50am 6ft 8s 6s 16 18 mph 1018.8mb 47f 47f
Thu 10/23 11:50pm 7ft 6s 6s 18 20 mph 1018.8mb 47f 46f
10:50pm 7ft 9s 6s 16 20 mph 1019.3mb 47f 46f
9:50pm 7ft 9s 6s 20 22 mph 1018.9mb 48f 45f
8:50pm 8ft 9s 6s 16 20 mph 1019.3mb 47f 44f
7:50pm 8ft 6s 6s 20 22 mph 1019.1mb 47f 44f
6:50pm 9ft 7s 6s 20 22 mph 1019.1mb 47f 44f
5:50pm 10ft 7s 6s 27 31 mph 1017.9mb 47f 44f
4:50pm 10ft 7s 6s 27 31 mph 1017.7mb 47f 44f
3:50pm 10ft 8s 6s 27 34 mph 1017.5mb 46f 44f
2:50pm 10ft 8s 6s 29 38 mph 1016.9mb 46f 44f
1:50pm 10ft 7s 6s 31 38 mph 1015.8mb 46f 44f
12:50pm 11.5ft 7s 6s 29 38 mph 1016.1mb 47f 44f
11:50am 11ft 8s 6s 27 34 mph 1015.3mb 47f 44f
10:50am 11.5ft 8s 7s 27 36 mph 1015.2mb 47f 44f
9:50am 11ft 8s 6s 25 36 mph 1014.7mb 47f 44f
8:50am 11ft 8s 6s 25 29 mph 1014.5mb 47f 44f
7:50am 13ft 8s 7s 29 36 mph 1014.4mb 47f 44f
6:50am 12ft 10s 7s 27 31 mph 1013.5mb 47f 44f
5:50am 14ft 8s 7s 25 31 mph 1012.8mb 47f 44f
4:50am 13ft 8s 7s 27 34 mph 1011.6mb 48f 44f
3:50am 13.5ft 8s 7s 27 34 mph 1010.8mb 48f 44f
2:50am 14.5ft 9s 7s 34 40 mph 1009.4mb 48f 44f
1:50am 14ft 9s 7s 34 43 mph 1008.6mb 48f 44f
12:50am 14ft 8s 7s 34 45 mph 1007.5mb 48f 44f
Wed 10/22 11:50pm 14ft 8s 7s 34 45 mph 1006.6mb 47f 44f
10:50pm 12ft 8s 7s 31 40 mph 1005.7mb 47f 44f
9:50pm 11.5ft 8s 6s 36 45 mph 1005.1mb 47f 43f
8:50pm 12ft 8s 6s 31 38 mph 1004.4mb 47f 42f
7:50pm 11.5ft 7s 6s 31 40 mph 1003.6mb 47f 42f
6:50pm 12ft 7s 7s 31 40 mph 1002.4mb 47f 42f
5:50pm 13ft 10s 7s 29 34 mph 1001.2mb 47f 43f
4:50pm 11.5ft 10s 7s 29 36 mph 999.7mb 47f 43f
3:50pm 13ft 10s 7s 29 36 mph 998.8mb 47f 42f
2:50pm 12.5ft 9s 7s 31 36 mph 997.9mb 47f 42f
1:50pm 13ft 9s 7s 22 38 mph 997.5mb 47f 40f
12:50pm 11ft 11s 7s 25 34 mph 997.1mb 47f 38f
11:50am 12ft 10s 7s 27 34 mph 996.2mb 47f 41f
10:50am 10ft 9s 7s 25 31 mph 995.6mb 47f 42f
9:50am 11.5ft 10s 7s 25 31 mph 995.4mb 47f 40f
8:50am 11ft 10s 7s 27 34 mph 995.1mb 47f 41f
7:50am 11ft 10s 7s 29 36 mph 995.1mb 47f 40f
6:50am 12ft 9s 7s 27 34 mph 995mb 47f 41f
5:50am 10ft 10s 6s 27 34 mph 995mb 47f 42f
4:50am 11.5ft 10s 7s 25 31 mph 995.1mb 47f 41f
3:50am 12.5ft 10s 7s 29 38 mph 994.8mb 47f 40f
2:50am  -   -   -  29 36 mph 994.7mb 47f 41f
1:50am 13.5ft 11s 7s 27 34 mph 994.7mb 47f 40f
12:50am 11.5ft 10s 7s 25 29 mph 994.8mb 47f 41f
Tue 10/21 11:50pm 10ft 10s 7s 25 29 mph 994.7mb 48f 40f
10:50pm 10.5ft 9s 7s 22 27 mph 994.7mb 47f 42f
9:50pm 10ft 9s 7s 22 27 mph 994.7mb 47f 41f
8:50pm 10ft 8s 7s 25 29 mph 994.3mb 47f 42f
7:50pm 10.5ft 10s 7s 25 29 mph 994.2mb 47f 41f
6:50pm  -   -   -  27 31 mph 994mb 47f 40f
5:50pm 10ft 10s 6s 27 34 mph 993.2mb 47f 42f
4:50pm 9ft 9s 6s 20 25 mph 993.2mb 47f 40f
3:50pm 9ft 10s 6s 29 38 mph 993.3mb 47f 38f
2:50pm 10ft 8s 6s 25 31 mph 992.9mb 47f 41f
1:50pm 10.5ft 9s 7s 25 31 mph 992.6mb 47f 41f
12:50pm 9ft 9s 6s 25 29 mph 992.2mb 47f 41f
11:50am 9ft 9s 6s 22 27 mph 992mb 47f 41f
10:50am 8ft 9s 7s 16 20 mph 991.8mb 47f 41f
9:50am 9ft 8s 7s 20 25 mph 991.5mb 47f 41f
8:50am 8.5ft 8s 6s 18 22 mph 991.5mb 47f 40f
7:50am 9ft 10s 6s 20 27 mph 991.1mb 47f 41f
6:50am 8.5ft 9s 6s 25 27 mph 990.6mb 47f 41f
5:50am 9ft 10s 7s 20 27 mph 990.3mb 47f 41f
4:50am 9ft 9s 7s 11 16 mph 990.3mb 47f 38f
3:50am 8ft 9s 6s 22 27 mph 989.8mb 47f 41f
2:50am 8ft 9s 6s 18 22 mph 989.9mb 47f 42f
1:50am 7.5ft 7s 6s 22 27 mph 990mb 47f 41f
12:50am 7ft 6s 6s 22 29 mph 990.3mb 47f 41f
Mon 10/20 11:50pm 5.5ft 6s 6s 22 29 mph 990.5mb 47f 40f
10:50pm 5ft 5s 5s 13 16 mph 991.1mb 47f 39f
9:50pm 5ft 6s 5s 16 20 mph 991.3mb 47f 40f
8:50pm 4.5ft 5s 5s 27 31 mph 991.5mb 47f 38f
7:50pm 4.5ft 5s 5s 18 22 mph 991.6mb 47f 40f
6:50pm 4ft 6s 5s 18 22 mph 991.6mb 47f 40f
5:50pm 4ft 6s 5s 16 22 mph 991.5mb 48f 39f
4:50pm 4.5ft 5s 5s 16 20 mph 991.6mb 48f 39f
3:50pm 4.5ft 5s 5s 16 22 mph 991.6mb 48f 40f